createdAt,value
2018-12-09T00:00:39.487Z,9.00
2018-12-09T00:03:10.231Z,11.20
2018-12-09T00:05:40.891Z,9.90
2018-12-09T00:08:11.627Z,10.07
2018-12-09T00:10:40.262Z,9.00
2018-12-09T00:13:08.943Z,7.97
2018-12-09T00:15:39.589Z,7.03
2018-12-09T00:18:08.209Z,5.87
2018-12-09T00:20:36.590Z,5.73
2018-12-09T00:23:05.070Z,5.40
2018-12-09T00:25:33.526Z,4.23
2018-12-09T00:28:01.926Z,4.27
2018-12-09T00:30:30.314Z,4.33
2018-12-09T00:32:58.908Z,6.80
2018-12-09T00:35:27.302Z,12.17
2018-12-09T00:37:55.665Z,15.40
2018-12-09T00:40:24.016Z,17.00
2018-12-09T00:42:52.338Z,18.57
2018-12-09T00:45:20.703Z,18.73
2018-12-09T00:47:49.142Z,17.63
2018-12-09T00:50:17.510Z,17.30
2018-12-09T00:52:45.920Z,17.43
2018-12-09T00:55:14.306Z,17.93
2018-12-09T00:57:42.633Z,15.93
2018-12-09T01:00:13.020Z,12.43
2018-12-09T01:02:42.987Z,12.73
2018-12-09T01:05:11.531Z,12.70
2018-12-09T01:07:40.309Z,11.93
2018-12-09T01:10:08.851Z,10.90
2018-12-09T01:12:37.214Z,11.80
2018-12-09T01:15:06.157Z,11.87
2018-12-09T01:17:34.530Z,12.30
2018-12-09T01:20:02.999Z,8.47
2018-12-09T01:22:31.527Z,9.93
2018-12-09T01:24:59.850Z,11.20
2018-12-09T01:27:28.242Z,8.07
2018-12-09T01:29:56.609Z,9.70
2018-12-09T01:32:25.645Z,10.47
2018-12-09T01:34:54.013Z,10.20
2018-12-09T01:37:22.418Z,6.43
2018-12-09T01:39:51.079Z,4.00
2018-12-09T01:42:19.433Z,4.03
2018-12-09T01:44:47.754Z,6.27
2018-12-09T01:47:16.075Z,8.67
2018-12-09T01:49:45.682Z,9.80
2018-12-09T01:52:14.022Z,9.93
2018-12-09T01:54:42.401Z,8.80
2018-12-09T01:57:10.734Z,8.20
2018-12-09T01:59:39.184Z,10.13
2018-12-09T02:02:07.718Z,9.17
2018-12-09T02:04:36.055Z,9.60
2018-12-09T02:07:04.774Z,7.97
2018-12-09T02:09:33.115Z,7.70
2018-12-09T02:12:01.509Z,9.50
2018-12-09T02:14:30.188Z,10.43
2018-12-09T02:16:58.510Z,13.13
2018-12-09T02:19:27.171Z,14.57
2018-12-09T02:21:55.617Z,14.30
2018-12-09T02:24:24.095Z,12.77
2018-12-09T02:26:52.558Z,15.53
2018-12-09T02:29:20.957Z,10.23
2018-12-09T02:31:49.305Z,10.30
2018-12-09T02:34:17.672Z,8.13
2018-12-09T02:36:46.163Z,11.03
2018-12-09T02:39:14.509Z,10.27
2018-12-09T02:41:42.925Z,11.87
2018-12-09T02:44:11.339Z,12.17
2018-12-09T02:46:39.725Z,12.90
2018-12-09T02:49:08.067Z,11.50
2018-12-09T02:51:36.717Z,12.33
2018-12-09T02:54:05.091Z,13.57
2018-12-09T02:56:33.424Z,14.33
2018-12-09T02:59:01.773Z,14.00
2018-12-09T03:01:30.410Z,14.53
2018-12-09T03:03:58.770Z,13.13
2018-12-09T03:06:27.386Z,11.40
2018-12-09T03:08:55.725Z,11.70
2018-12-09T03:24:09.030Z,10.33
2018-12-09T03:26:37.322Z,11.23
2018-12-09T03:29:05.753Z,10.57
2018-12-09T03:31:33.872Z,11.07
2018-12-09T03:34:02.029Z,11.37
2018-12-09T03:36:30.153Z,11.00
2018-12-09T03:38:58.712Z,10.30
2018-12-09T03:41:26.926Z,10.60
2018-12-09T03:43:55.085Z,10.30
2018-12-09T03:46:23.271Z,10.73
2018-12-09T03:48:51.665Z,10.53
2018-12-09T03:51:20.083Z,10.40
2018-12-09T03:53:48.226Z,10.73
2018-12-09T03:56:16.340Z,10.00
2018-12-09T03:58:44.603Z,10.00
2018-12-09T04:01:12.758Z,8.20
2018-12-09T04:03:40.921Z,7.13
2018-12-09T04:06:09.078Z,7.67
2018-12-09T04:08:39.916Z,8.13
2018-12-09T04:11:08.013Z,8.63
2018-12-09T04:13:36.127Z,6.53
2018-12-09T04:16:04.426Z,8.67
2018-12-09T04:18:34.615Z,7.93
2018-12-09T04:21:02.756Z,8.80
2018-12-09T04:23:30.954Z,8.27
2018-12-09T04:26:02.740Z,7.73
2018-12-09T04:28:30.982Z,7.73
2018-12-09T04:30:59.178Z,8.00
2018-12-09T04:33:27.313Z,9.63
2018-12-09T04:35:55.452Z,11.60
2018-12-09T04:38:23.590Z,10.87
2018-12-09T04:40:51.743Z,11.97
2018-12-09T04:43:19.868Z,11.20
2018-12-09T04:45:47.995Z,11.17
2018-12-09T04:48:16.127Z,10.70
2018-12-09T04:50:44.297Z,11.30
2018-12-09T04:53:12.420Z,12.20
2018-12-09T04:55:40.603Z,10.27
2018-12-09T04:58:08.742Z,8.07
2018-12-09T05:00:42.761Z,7.27
2018-12-09T05:03:10.961Z,7.57
2018-12-09T05:05:39.102Z,7.10
2018-12-09T05:08:07.251Z,6.50
2018-12-09T05:10:35.393Z,6.57
2018-12-09T05:13:03.525Z,7.00
2018-12-09T05:15:31.662Z,6.87
2018-12-09T05:17:59.826Z,7.87
2018-12-09T05:20:27.982Z,7.53
2018-12-09T05:22:56.153Z,7.23
2018-12-09T05:25:24.249Z,7.37
2018-12-09T05:27:52.473Z,7.80
2018-12-09T05:30:23.410Z,8.33
2018-12-09T05:32:51.541Z,8.97
2018-12-09T05:35:20.167Z,8.53
2018-12-09T05:37:48.315Z,8.17
2018-12-09T05:40:16.417Z,7.87
2018-12-09T05:42:44.519Z,9.00
2018-12-09T05:45:12.717Z,11.63
2018-12-09T05:47:41.218Z,11.43
2018-12-09T05:50:09.347Z,11.23
2018-12-09T05:52:38.729Z,9.33
2018-12-09T05:55:06.938Z,10.50
2018-12-09T05:57:35.064Z,11.40
2018-12-09T06:00:03.470Z,10.67
2018-12-09T06:02:37.027Z,10.67
2018-12-09T06:05:05.213Z,13.60
2018-12-09T06:07:33.437Z,12.37
2018-12-09T06:10:01.602Z,23.20
2018-12-09T06:12:29.778Z,31.10
2018-12-09T06:14:57.966Z,26.57
2018-12-09T06:17:26.062Z,22.13
2018-12-09T06:19:54.177Z,21.77
2018-12-09T06:22:22.772Z,13.20
2018-12-09T06:24:50.937Z,12.07
2018-12-09T06:27:19.091Z,10.33
2018-12-09T06:29:47.278Z,10.67
2018-12-09T06:32:15.422Z,10.83
2018-12-09T06:34:43.887Z,11.27
2018-12-09T06:37:12.075Z,10.90
2018-12-09T06:39:40.283Z,10.47
2018-12-09T06:42:08.354Z,9.03
2018-12-09T06:44:36.481Z,8.80
2018-12-09T06:47:04.917Z,7.73
2018-12-09T06:49:33.066Z,8.77
2018-12-09T06:52:01.145Z,10.00
2018-12-09T06:54:29.223Z,11.00
2018-12-09T06:56:57.315Z,8.60
2018-12-09T06:59:25.751Z,10.00
2018-12-09T07:01:54.055Z,10.20
2018-12-09T07:04:22.204Z,8.67
2018-12-09T07:06:50.303Z,8.87
2018-12-09T07:09:18.373Z,9.03
2018-12-09T07:11:46.455Z,9.10
2018-12-09T07:14:14.683Z,10.17
2018-12-09T07:16:42.825Z,10.23
2018-12-09T07:19:10.958Z,10.77
2018-12-09T07:21:39.193Z,10.80
2018-12-09T07:24:07.310Z,9.90
2018-12-09T07:26:35.487Z,10.50
2018-12-09T07:29:03.566Z,9.20
2018-12-09T07:31:31.643Z,8.73
2018-12-09T07:33:59.800Z,10.47
2018-12-09T07:36:27.959Z,11.60
2018-12-09T07:38:56.076Z,10.93
2018-12-09T07:41:24.326Z,11.67
2018-12-09T07:43:53.251Z,11.17
2018-12-09T07:46:21.331Z,10.30
2018-12-09T07:48:49.448Z,10.50
2018-12-09T07:51:17.590Z,11.00
2018-12-09T07:53:45.744Z,10.43
2018-12-09T07:56:13.824Z,10.30
2018-12-09T07:58:41.900Z,11.23
2018-12-09T08:01:10.033Z,11.40
2018-12-09T08:03:38.104Z,10.93
2018-12-09T08:06:06.251Z,10.87
2018-12-09T08:08:34.959Z,10.77
2018-12-09T08:11:03.090Z,11.47
2018-12-09T08:13:31.242Z,11.50
2018-12-09T08:15:59.301Z,11.57
2018-12-09T08:18:27.399Z,12.33
2018-12-09T08:20:55.964Z,12.03
2018-12-09T08:23:25.369Z,9.90
2018-12-09T08:25:53.423Z,10.87
2018-12-09T08:30:56.092Z,7.87
2018-12-09T08:33:24.264Z,7.70
2018-12-09T08:35:52.345Z,6.87
2018-12-09T08:38:20.452Z,10.33
2018-12-09T08:40:48.579Z,8.90
2018-12-09T08:43:16.680Z,7.43
2018-12-09T08:45:44.831Z,7.00
2018-12-09T08:48:13.167Z,6.57
2018-12-09T08:50:41.268Z,5.77
2018-12-09T08:53:09.370Z,4.90
2018-12-09T08:55:37.515Z,4.90
2018-12-09T08:58:05.651Z,4.57
2018-12-09T09:00:33.729Z,5.37
2018-12-09T09:03:01.916Z,5.67
2018-12-09T09:05:30.016Z,5.40
2018-12-09T09:07:58.128Z,5.17
2018-12-09T09:10:26.240Z,5.23
2018-12-09T09:12:54.380Z,5.33
2018-12-09T09:15:22.484Z,5.17
2018-12-09T09:17:50.695Z,5.30
2018-12-09T09:20:18.901Z,5.00
2018-12-09T09:22:47.320Z,5.30
2018-12-09T09:25:15.459Z,5.47
2018-12-09T09:27:43.592Z,5.60
2018-12-09T09:30:11.668Z,4.83
2018-12-09T09:32:40.090Z,5.30
2018-12-09T09:35:08.278Z,5.20
2018-12-09T09:37:36.435Z,5.67
2018-12-09T09:40:05.637Z,5.47
2018-12-09T09:42:34.271Z,6.10
2018-12-09T09:45:02.607Z,6.10
2018-12-09T09:47:32.471Z,7.10
2018-12-09T09:50:00.540Z,6.40
2018-12-09T09:52:28.633Z,6.40
2018-12-09T09:54:56.788Z,6.00
2018-12-09T09:57:24.961Z,5.93
2018-12-09T09:59:54.185Z,5.43
2018-12-09T10:02:22.286Z,5.73
2018-12-09T10:04:50.418Z,5.97
2018-12-09T10:07:18.516Z,6.17
2018-12-09T10:09:46.647Z,6.23
2018-12-09T10:12:14.748Z,7.40
2018-12-09T10:14:43.228Z,6.77
2018-12-09T10:17:11.440Z,6.87
2018-12-09T10:19:39.785Z,7.57
2018-12-09T10:22:07.962Z,8.03
2018-12-09T10:24:36.080Z,7.97
2018-12-09T10:27:04.210Z,7.30
2018-12-09T10:29:32.384Z,8.80
2018-12-09T10:32:00.555Z,9.37
2018-12-09T10:34:28.703Z,12.37
2018-12-09T10:36:56.986Z,11.60
2018-12-09T10:39:25.179Z,10.47
2018-12-09T10:41:53.255Z,9.03
2018-12-09T10:44:21.468Z,8.83
2018-12-09T10:46:49.559Z,8.60
2018-12-09T10:49:17.635Z,7.63
2018-12-09T10:51:45.820Z,7.53
2018-12-09T10:54:13.952Z,8.07
2018-12-09T10:56:42.161Z,8.10
2018-12-09T10:59:10.238Z,8.83
2018-12-09T11:01:38.453Z,8.90
2018-12-09T11:04:06.935Z,8.20
2018-12-09T11:06:35.172Z,7.60
2018-12-09T11:09:04.693Z,7.73
2018-12-09T11:11:33.459Z,7.63
2018-12-09T11:14:01.531Z,7.30
2018-12-09T11:16:29.627Z,7.87
2018-12-09T11:18:57.839Z,8.57
2018-12-09T11:21:30.600Z,8.40
2018-12-09T11:23:56.165Z,8.37
2018-12-09T11:26:24.222Z,8.80
2018-12-09T11:28:52.342Z,9.00
2018-12-09T11:31:20.568Z,9.50
2018-12-09T11:33:49.764Z,9.73
2018-12-09T11:36:17.852Z,10.07
2018-12-09T11:38:45.991Z,10.10
2018-12-09T11:41:14.125Z,10.47
2018-12-09T11:43:42.209Z,11.80
2018-12-09T11:46:10.309Z,10.87
2018-12-09T11:48:38.432Z,11.77
2018-12-09T11:51:06.641Z,12.63
2018-12-09T11:53:36.620Z,13.73
2018-12-09T11:56:04.855Z,14.47
2018-12-09T11:58:33.342Z,13.53
2018-12-09T12:01:01.523Z,13.30
2018-12-09T12:03:31.651Z,13.73
2018-12-09T12:05:59.741Z,12.83
2018-12-09T12:08:30.010Z,14.07
2018-12-09T12:10:58.509Z,13.70
2018-12-09T12:13:26.599Z,11.40
2018-12-09T12:15:54.672Z,10.93
2018-12-09T12:18:22.760Z,11.17
2018-12-09T12:20:50.848Z,11.73
2018-12-09T12:23:18.979Z,12.73
2018-12-09T12:25:47.092Z,14.53
2018-12-09T12:28:15.200Z,13.93
2018-12-09T12:30:43.259Z,13.87
2018-12-09T12:33:11.353Z,13.60
2018-12-09T12:35:39.475Z,16.97
2018-12-09T12:38:07.600Z,16.80
2018-12-09T12:40:35.712Z,17.90
2018-12-09T12:43:03.968Z,17.90
2018-12-09T12:45:32.477Z,17.20
2018-12-09T12:48:00.634Z,16.03
2018-12-09T12:50:28.836Z,16.07
2018-12-09T12:52:57.100Z,14.93
2018-12-09T12:58:04.028Z,13.90
2018-12-09T13:00:34.590Z,12.63
2018-12-09T13:03:02.703Z,11.63
2018-12-09T13:05:31.122Z,10.00
2018-12-09T13:08:00.248Z,10.03
2018-12-09T13:10:28.399Z,10.10
2018-12-09T13:12:56.513Z,10.17
2018-12-09T13:15:24.759Z,9.23
2018-12-09T13:17:52.820Z,10.93
2018-12-09T13:20:21.010Z,10.23
2018-12-09T13:22:49.172Z,9.43
2018-12-09T13:25:17.517Z,9.90
2018-12-09T13:27:45.941Z,9.30
2018-12-09T13:30:14.079Z,10.00
2018-12-09T13:32:42.163Z,9.27
2018-12-09T13:35:10.388Z,9.30
2018-12-09T13:37:38.610Z,8.07
2018-12-09T13:40:06.926Z,9.13
2018-12-09T13:42:35.425Z,8.77
2018-12-09T13:45:04.667Z,9.47
2018-12-09T13:47:34.293Z,9.03
2018-12-09T13:50:02.429Z,10.23
2018-12-09T13:52:30.756Z,10.53
2018-12-09T13:54:58.876Z,12.07
2018-12-09T13:57:27.078Z,10.37
2018-12-09T13:59:55.239Z,11.60
2018-12-09T14:02:23.366Z,11.03
2018-12-09T14:04:53.505Z,11.03
2018-12-09T14:07:21.934Z,12.00
2018-12-09T14:09:50.047Z,11.80
2018-12-09T14:12:18.187Z,14.27
2018-12-09T14:14:46.282Z,12.50
2018-12-09T14:17:14.428Z,13.83
2018-12-09T14:19:42.599Z,14.00
2018-12-09T14:22:10.684Z,14.20
2018-12-09T14:24:38.817Z,15.07
2018-12-09T14:27:06.978Z,15.20
2018-12-09T14:29:35.108Z,15.30
2018-12-09T14:32:03.212Z,17.40
2018-12-09T14:34:31.585Z,19.73
2018-12-09T14:36:59.786Z,18.07
2018-12-09T14:39:27.859Z,18.67
2018-12-09T14:41:55.972Z,19.57
2018-12-09T14:44:24.047Z,18.23
2018-12-09T14:46:52.201Z,17.13
2018-12-09T14:49:21.316Z,17.90
2018-12-09T14:51:49.409Z,18.43
2018-12-09T14:54:17.503Z,19.23
2018-12-09T14:56:45.680Z,18.10
2018-12-09T14:59:13.876Z,17.37
2018-12-09T15:01:42.052Z,16.67
2018-12-09T15:04:10.628Z,15.70
2018-12-09T15:06:39.840Z,16.87
2018-12-09T15:09:08.525Z,20.50
2018-12-09T15:11:36.888Z,19.60
2018-12-09T15:14:05.148Z,19.77
2018-12-09T15:16:33.259Z,18.13
2018-12-09T15:19:01.371Z,18.63
2018-12-09T15:21:29.502Z,17.67
2018-12-09T15:23:58.677Z,18.93
2018-12-09T15:26:26.839Z,20.60
2018-12-09T15:28:54.927Z,20.07
2018-12-09T15:31:22.976Z,19.83
2018-12-09T15:33:51.252Z,20.60
2018-12-09T15:36:19.344Z,22.13
2018-12-09T15:38:47.400Z,22.37
2018-12-09T15:41:15.536Z,22.53
2018-12-09T15:43:43.610Z,23.90
2018-12-09T15:46:11.711Z,22.40
2018-12-09T15:48:39.779Z,24.13
2018-12-09T15:51:08.130Z,22.67
2018-12-09T15:53:36.265Z,19.60
2018-12-09T15:56:04.364Z,17.97
2018-12-09T15:58:32.459Z,15.90
2018-12-09T16:01:00.582Z,15.27
2018-12-09T16:03:28.741Z,17.13
2018-12-09T16:05:56.817Z,32.40
2018-12-09T16:08:26.468Z,28.73
2018-12-09T16:10:54.551Z,20.20
2018-12-09T16:13:22.640Z,16.00
2018-12-09T16:15:50.793Z,14.90
2018-12-09T16:18:18.931Z,18.60
2018-12-09T16:20:47.016Z,23.53
2018-12-09T16:23:15.079Z,23.03
2018-12-09T16:25:43.192Z,23.90
2018-12-09T16:28:11.256Z,21.43
2018-12-09T16:30:40.420Z,19.03
2018-12-09T16:33:15.412Z,19.43
2018-12-09T16:35:43.537Z,18.93
2018-12-09T16:38:11.632Z,18.67
2018-12-09T16:40:39.747Z,16.57
2018-12-09T16:43:07.921Z,17.17
2018-12-09T16:45:36.110Z,17.43
2018-12-09T16:48:04.227Z,16.37
2018-12-09T16:50:32.314Z,18.73
2018-12-09T16:53:00.455Z,16.23
2018-12-09T16:55:28.567Z,16.00
2018-12-09T16:57:56.686Z,16.57
2018-12-09T17:00:24.833Z,18.50
2018-12-09T17:02:53.240Z,18.23
2018-12-09T17:05:21.361Z,15.67
2018-12-09T17:07:49.447Z,14.77
2018-12-09T17:10:17.593Z,14.93
2018-12-09T17:12:45.720Z,12.20
2018-12-09T17:15:13.789Z,10.37
2018-12-09T17:17:41.875Z,10.13
2018-12-09T17:20:10.026Z,8.93
2018-12-09T17:22:38.191Z,7.87
2018-12-09T17:25:07.429Z,8.33
2018-12-09T17:27:36.212Z,8.43
2018-12-09T17:30:04.676Z,9.97
2018-12-09T17:33:17.851Z,14.23
2018-12-09T17:35:45.954Z,15.57
2018-12-09T17:38:14.151Z,17.00
2018-12-09T17:40:42.379Z,18.50
2018-12-09T17:43:10.578Z,19.27
2018-12-09T17:45:38.941Z,15.83
2018-12-09T17:48:07.130Z,13.03
2018-12-09T17:50:36.947Z,13.77
2018-12-09T17:53:05.809Z,13.00
2018-12-09T17:55:34.185Z,16.40
2018-12-09T17:58:02.428Z,29.97
2018-12-09T18:00:30.592Z,20.07
2018-12-09T18:02:58.820Z,25.23
2018-12-09T18:05:26.991Z,27.87
2018-12-09T18:07:55.165Z,27.87
2018-12-09T18:10:23.382Z,29.67
2018-12-09T18:13:49.050Z,34.67
2018-12-09T18:16:17.303Z,27.27
2018-12-09T18:21:24.064Z,36.90
2018-12-09T18:23:53.511Z,30.23
2018-12-09T18:26:21.780Z,34.30
2018-12-09T18:28:50.015Z,33.57
2018-12-09T18:31:18.201Z,30.57
2018-12-09T18:33:46.419Z,25.37
2018-12-09T18:36:14.601Z,27.57
2018-12-09T18:38:42.923Z,22.47
2018-12-09T18:41:11.177Z,24.40
2018-12-09T18:43:39.676Z,24.10
2018-12-09T18:46:07.923Z,28.50
2018-12-09T18:48:36.086Z,29.57
2018-12-09T18:51:04.424Z,26.40
2018-12-09T18:53:32.716Z,26.27
2018-12-09T18:56:00.993Z,25.07
2018-12-09T18:58:29.372Z,30.93
2018-12-09T19:00:57.451Z,30.90
2018-12-09T19:03:25.589Z,26.37
2018-12-09T19:05:53.776Z,24.47
2018-12-09T19:08:23.437Z,28.93
2018-12-09T19:10:51.548Z,30.30
2018-12-09T19:13:19.725Z,29.20
2018-12-09T19:15:47.854Z,28.50
2018-12-09T19:18:16.510Z,30.90
2018-12-09T19:20:44.691Z,30.10
2018-12-09T19:23:12.892Z,25.03
2018-12-09T19:25:41.234Z,28.57
2018-12-09T19:28:09.459Z,35.00
2018-12-09T19:30:37.530Z,37.20
2018-12-09T19:33:05.644Z,33.23
2018-12-09T19:35:34.231Z,41.60
2018-12-09T19:38:03.728Z,42.20
2018-12-09T19:40:31.864Z,31.13
2018-12-09T19:42:59.935Z,36.93
2018-12-09T19:45:28.020Z,41.30
2018-12-09T19:47:56.351Z,39.60
2018-12-09T19:50:24.476Z,38.37
2018-12-09T19:52:52.621Z,37.30
2018-12-09T19:55:20.749Z,26.67
2018-12-09T19:57:48.908Z,18.40
2018-12-09T20:00:17.004Z,13.90
2018-12-09T20:02:45.147Z,16.50
2018-12-09T20:05:13.203Z,17.33
2018-12-09T20:07:41.502Z,17.27
2018-12-09T20:10:09.687Z,24.47
2018-12-09T20:12:38.171Z,34.57
2018-12-09T20:15:07.219Z,41.43
2018-12-09T20:17:35.456Z,43.43
2018-12-09T20:20:04.144Z,32.90
2018-12-09T20:22:32.932Z,35.97
2018-12-09T20:25:01.233Z,51.63
2018-12-09T20:27:29.344Z,46.13
2018-12-09T20:29:57.441Z,43.83
2018-12-09T20:32:25.596Z,34.00
2018-12-09T20:34:53.825Z,36.97
2018-12-09T20:37:21.891Z,34.17
2018-12-09T20:39:50.041Z,34.73
2018-12-09T20:42:18.156Z,36.33
2018-12-09T20:44:46.265Z,19.47
2018-12-09T20:47:14.375Z,27.00
2018-12-09T20:49:42.509Z,27.00
2018-12-09T20:52:10.619Z,35.23
2018-12-09T20:57:16.617Z,33.63
2018-12-09T20:59:44.837Z,38.93
2018-12-09T21:02:12.926Z,38.50
2018-12-09T21:04:41.101Z,32.47
2018-12-09T21:07:09.163Z,33.00
2018-12-09T21:09:37.269Z,32.03
2018-12-09T21:12:05.383Z,26.10
2018-12-09T21:14:33.523Z,27.53
2018-12-09T21:17:01.619Z,30.23
2018-12-09T21:19:30.220Z,30.03
2018-12-09T21:21:58.492Z,33.67
2018-12-09T21:24:26.607Z,33.50
2018-12-09T21:26:54.667Z,36.13
2018-12-09T21:29:22.898Z,30.83
2018-12-09T21:31:51.039Z,32.77
2018-12-09T21:34:19.195Z,32.90
2018-12-09T21:36:47.492Z,30.07
2018-12-09T21:39:15.627Z,33.87
2018-12-09T21:41:44.101Z,31.40
2018-12-09T21:44:12.289Z,32.67
2018-12-09T21:46:40.378Z,35.27
2018-12-09T21:49:08.613Z,34.50
2018-12-09T21:51:36.728Z,34.40
2018-12-09T21:54:04.841Z,33.73
2018-12-09T21:56:32.969Z,32.77
2018-12-09T21:59:01.082Z,28.07
2018-12-09T22:01:29.240Z,29.00
2018-12-09T22:03:57.387Z,28.90
2018-12-09T22:06:25.764Z,31.13
2018-12-09T22:08:53.890Z,17.37
2018-12-09T22:11:22.032Z,9.50
2018-12-09T22:13:50.268Z,8.63
2018-12-09T22:16:18.507Z,8.40
2018-12-09T22:18:46.640Z,8.40
2018-12-09T22:21:16.503Z,8.67
2018-12-09T22:23:44.743Z,9.57
2018-12-09T22:26:13.882Z,10.77
2018-12-09T22:28:41.976Z,14.30
2018-12-09T22:31:10.073Z,12.97
2018-12-09T22:33:38.183Z,13.40
2018-12-09T22:36:06.463Z,12.90
2018-12-09T22:38:34.539Z,12.40
2018-12-09T22:41:02.647Z,18.40
2018-12-09T22:43:30.707Z,10.63
2018-12-09T22:45:58.811Z,9.43
2018-12-09T22:48:26.864Z,9.30
2018-12-09T22:50:54.939Z,7.43
2018-12-09T22:53:23.061Z,6.93
2018-12-09T22:55:51.140Z,5.20
2018-12-09T22:58:19.222Z,4.97
2018-12-09T23:00:53.302Z,4.50
2018-12-09T23:03:23.486Z,5.20
2018-12-09T23:05:51.579Z,6.20
2018-12-09T23:08:19.668Z,4.00
2018-12-09T23:10:47.776Z,4.40
2018-12-09T23:13:15.872Z,4.00
2018-12-09T23:15:43.935Z,3.93
2018-12-09T23:18:12.015Z,3.67
2018-12-09T23:20:40.092Z,3.70
2018-12-09T23:23:08.149Z,3.40
2018-12-09T23:25:36.251Z,3.03
2018-12-09T23:28:04.315Z,2.73
2018-12-09T23:30:32.416Z,2.93
2018-12-09T23:33:00.491Z,3.30
2018-12-09T23:35:28.551Z,2.80
2018-12-09T23:37:56.718Z,2.53
2018-12-09T23:40:25.191Z,2.87
2018-12-09T23:42:53.304Z,3.67
2018-12-09T23:45:22.395Z,2.53
2018-12-09T23:47:50.447Z,2.47
2018-12-09T23:50:18.491Z,3.83
2018-12-09T23:52:46.543Z,2.93
2018-12-09T23:55:14.883Z,3.47
2018-12-09T23:57:44.519Z,2.93
